^^
Historische Daten
 
Tag Summe für Februar 25, 2018 Einheit:  Metric    English   Beide
« vorheriger Tag
nächster Tag »
Tag Woche Monat Jahr Benutzerdefiniert
  Aktuell: Max: Min: Durchschnitt:
Temperatur: -25.2 °C -17.8 °C -26.6 °C -25.7 °C
Tau Punkt: -26.1 °C -17.8 °C -27.4 °C -26.6 °C
Luftfeuchte: 87% Humidity% 84% 86%
Windgeschwindigkeit: 15km/h 0km/h 0km/h 5.8km/h
Wind Böen: 15km/h 0km/h - -
WindNNE - - NE
Luftdruck: 34865.6 hPa 0 hPa 34841.9 hPa -
Niederschlag: 0 mm      
Historical Graphs
 
 
Tabellendaten für Februar 25, 2018
Zeit Temperatur Tau Punkt Luftdruck Wind Windgeschwindigkeit Wind Böen Luftfeuchte Regen Rate (Stunde) Conditions
-17.8 °C -17.8 °C 0 hPa Calm     Humidity% 0 mm Conditions
00:00 -24.8 °C -26 °C 34875.8 hPa ENE 9 km/h 9 km/h 84% 0 mm CLR
00:05 -24.8 °C -26 °C 34865.6 hPa NE 6 km/h 6 km/h 84% 0 mm CLR
00:10 -24.8 °C -26 °C 34865.6 hPa NE 9 km/h 9 km/h 84% 0 mm CLR
00:15 -24.8 °C -26.1 °C 34875.8 hPa NE 6 km/h 6 km/h 84% 0 mm CLR
00:20 -24.9 °C -26.1 °C 34865.6 hPa NE 9 km/h 9 km/h 84% 0 mm CLR
00:25 -24.9 °C -26.1 °C 34865.6 hPa ENE 9 km/h 9 km/h 84% 0 mm CLR
00:30 -24.9 °C -26.2 °C 34875.8 hPa NE 6 km/h 6 km/h 84% 0 mm CLR
00:35 -25 °C -26.2 °C 34865.6 hPa ENE 9 km/h 9 km/h 84% 0 mm CLR
00:40 -25 °C -26.1 °C 34865.6 hPa NE 9 km/h 9 km/h 85% 0 mm CLR
00:45 -25.1 °C -26.2 °C 34865.6 hPa NE 6 km/h 6 km/h 85% 0 mm CLR
00:50 -25.1 °C -26.2 °C 34865.6 hPa ENE 6 km/h 6 km/h 85% 0 mm CLR
00:51 -25.1 °C -26.2 °C 34865.6 hPa ENE 11.9 km/h 11.9 km/h 85% 0 mm CLR
00:56 -25.1 °C -26.2 °C 34865.6 hPa NE 8.2 km/h 8.2 km/h 85% 0 mm CLR
01:01 -25.1 °C -26.2 °C 34865.6 hPa NE 9 km/h 9 km/h 85% 0 mm CLR
01:06 -25.1 °C -26.2 °C 34865.6 hPa NE 11.9 km/h 11.9 km/h 85% 0 mm CLR
01:11 -25.1 °C -26.1 °C 34865.6 hPa ENE 9 km/h 9 km/h 86% 0 mm CLR
01:16 -25.1 °C -26.1 °C 34865.6 hPa NE 9 km/h 9 km/h 86% 0 mm CLR
01:21 -25.1 °C -26.1 °C 34865.6 hPa ENE 10.9 km/h 10.9 km/h 86% 0 mm CLR
01:26 -25.1 °C -26.2 °C 34865.6 hPa NNE 11.9 km/h 11.9 km/h 86% 0 mm CLR
01:31 -25.2 °C -26.2 °C 34865.6 hPa NE 6 km/h 6 km/h 86% 0 mm CLR
01:36 -25.2 °C -26.2 °C 34865.6 hPa Calm     86% 0 mm CLR
01:41 -25.2 °C -26.2 °C 34865.6 hPa NE 3.1 km/h 3.1 km/h 86% 0 mm CLR
01:47 -25.3 °C -26.3 °C 34875.8 hPa NE 3.1 km/h 3.1 km/h 86% 0 mm CLR
01:52 -25.3 °C -26.3 °C 34875.8 hPa NE 3.1 km/h 3.1 km/h 86% 0 mm CLR
01:57 -25.4 °C -26.4 °C 34875.8 hPa Calm   0.5 km/h 86% 0 mm CLR
02:02 -25.4 °C -26.4 °C 34865.6 hPa Calm     86% 0 mm CLR
02:06 -25.4 °C -26.5 °C 34865.6 hPa NE 9 km/h 9 km/h 86% 0 mm CLR
02:11 -25.5 °C -26.5 °C 34865.6 hPa ENE 5.5 km/h 5.5 km/h 86% 0 mm CLR
02:16 -25.5 °C -26.6 °C 34865.6 hPa ENE 9 km/h 9 km/h 86% 0 mm CLR
02:21 -25.5 °C -26.6 °C 34865.6 hPa ENE 2.6 km/h 2.6 km/h 86% 0 mm CLR
02:26 -25.6 °C -26.6 °C 34865.6 hPa Calm     86% 0 mm CLR
02:31 -25.6 °C -26.6 °C 34865.6 hPa ENE 3.1 km/h 3.1 km/h 86% 0 mm CLR
02:37 -25.6 °C -26.6 °C 34865.6 hPa ENE 3.1 km/h 3.1 km/h 86% 0 mm CLR
02:42 -25.7 °C -26.7 °C 34865.6 hPa ENE 3.1 km/h 3.1 km/h 86% 0 mm CLR
02:47 -25.7 °C -26.7 °C 34852.1 hPa ENE 3.1 km/h 3.1 km/h 86% 0 mm CLR
02:52 -25.7 °C -26.7 °C 34852.1 hPa Calm     86% 0 mm CLR
02:57 -25.8 °C -26.8 °C 34852.1 hPa ENE 3.1 km/h 3.1 km/h 86% 0 mm CLR
03:02 -25.8 °C -26.8 °C 34852.1 hPa ENE 6 km/h 6 km/h 86% 0 mm CLR
03:07 -25.8 °C -26.8 °C 34852.1 hPa ENE 3.1 km/h 3.1 km/h 86% 0 mm CLR
03:12 -25.9 °C -26.9 °C 34852.1 hPa ENE 3.1 km/h 3.1 km/h 86% 0 mm -SN
03:17 -25.9 °C -26.9 °C 34852.1 hPa ENE 3.1 km/h 3.1 km/h 86% 0 mm -SN
03:22 -25.9 °C -26.9 °C 34852.1 hPa ENE 3.1 km/h 3.1 km/h 86% 0 mm -SN
03:27 -25.9 °C -27 °C 34852.1 hPa ENE 6 km/h 6 km/h 86% 0 mm -SN
03:32 -26 °C -26.9 °C 34852.1 hPa ENE 3.1 km/h   87% 0 mm -SN
03:37 -26 °C -26.9 °C 34852.1 hPa Calm     87% 0 mm -SN
03:42 -26 °C -26.9 °C 34852.1 hPa ENE 3.1 km/h 3.1 km/h 87% 0 mm -SN
03:47 -26.1 °C -27 °C 34852.1 hPa Calm   0.3 km/h 87% 0 mm -SN
03:52 -26.1 °C -27 °C 34852.1 hPa ENE 3.1 km/h 3.1 km/h 87% 0 mm -SN
03:57 -26.1 °C -27 °C 34852.1 hPa ENE 6 km/h 6 km/h 87% 0 mm -SN
04:02 -26 °C -26.9 °C 34852.1 hPa NE 8.2 km/h 8.2 km/h 87% 0 mm -SN
04:07 -26 °C -26.9 °C 34852.1 hPa Calm     87% 0 mm -SN
04:12 -25.9 °C -26.9 °C 34852.1 hPa NE 6 km/h 6 km/h 87% 0 mm -SN
04:17 -25.9 °C -26.8 °C 34841.9 hPa ENE 6 km/h 6 km/h 88% 0 mm -SN
04:22 -25.8 °C -26.7 °C 34841.9 hPa East 9 km/h 9 km/h 88% 0 mm -SN
04:28 -25.8 °C -26.7 °C 34841.9 hPa East 3.1 km/h 3.1 km/h 88% 0 mm -SN
04:33 -25.8 °C -26.6 °C 34841.9 hPa Calm     88% 0 mm -SN
04:37 -25.8 °C -26.7 °C 34841.9 hPa Calm     88% 0 mm -SN
04:43 -25.8 °C -26.6 °C 34841.9 hPa ENE 6 km/h   88% 0 mm -SN
04:47 -25.8 °C -26.6 °C 34841.9 hPa East 8.2 km/h 8.2 km/h 89% 0 mm -SN
04:52 -25.7 °C -26.5 °C 34841.9 hPa ENE 9 km/h 9 km/h 89% 0 mm -SN
04:58 -25.7 °C -26.4 °C 34841.9 hPa ENE 6 km/h 6 km/h 89% 0 mm -SN
05:03 -25.6 °C -26.4 °C 34841.9 hPa North 9 km/h 9 km/h 89% 0 mm -SN
05:08 -25.6 °C -26.3 °C 34841.9 hPa NNE 9 km/h 9 km/h 89% 0 mm -SN
05:12 -25.6 °C -26.3 °C 34841.9 hPa NE 9 km/h 9 km/h 89% 0 mm -SN
05:18 -25.6 °C -26.3 °C 34841.9 hPa NE 6 km/h 6 km/h 89% 0 mm -SN
05:23 -25.6 °C -26.4 °C 34841.9 hPa NE 3.1 km/h 3.1 km/h 89% 0 mm -SN
05:27 -25.7 °C -26.4 °C 34841.9 hPa NNE 9 km/h 9 km/h 89% 0 mm -SN
05:33 -25.7 °C -26.4 °C 34841.9 hPa NNE 9 km/h 9 km/h 89% 0 mm -SN
05:38 -25.7 °C -26.5 °C 34841.9 hPa NNE 6 km/h 6 km/h 89% 0 mm -SN
05:43 -25.8 °C -26.6 °C 34841.9 hPa NNE 9 km/h 9 km/h 89% 0 mm -SN
05:48 -25.9 °C -26.6 °C 34841.9 hPa North 6 km/h 6 km/h 89% 0 mm -SN
05:53 -25.9 °C -26.7 °C 34841.9 hPa NNE 6 km/h 6 km/h 89% 0 mm -SN
05:58 -25.9 °C -26.7 °C 34841.9 hPa North 9 km/h 9 km/h 89% 0 mm -SN
06:03 -26 °C -26.8 °C 34841.9 hPa North 6 km/h 6 km/h 89% 0 mm -SN
06:08 -26.1 °C -26.8 °C 34841.9 hPa NNE 3.1 km/h 3.1 km/h 89% 0 mm -SN
06:13 -26.1 °C -26.8 °C 34841.9 hPa NNE 6 km/h 6 km/h 89% 0 mm -SN
06:18 -26.1 °C -26.9 °C 34841.9 hPa NNE 3.1 km/h   89% 0 mm -SN
06:23 -26.2 °C -26.9 °C 34841.9 hPa NNE 3.1 km/h 3.1 km/h 89% 0 mm CLR
06:28 -26.2 °C -27 °C 34841.9 hPa NNE 5.5 km/h 5.5 km/h 89% 0 mm CLR
06:33 -26.3 °C -27.1 °C 34841.9 hPa NNE 3.1 km/h 3.1 km/h 89% 0 mm CLR
06:38 -26.3 °C -27.1 °C 34841.9 hPa NNE 3.1 km/h 3.1 km/h 89% 0 mm CLR
06:43 -26.3 °C -27.2 °C 34841.9 hPa NNE 3.1 km/h 3.1 km/h 88% 0 mm CLR
06:48 -26.4 °C -27.3 °C 34841.9 hPa Calm   0.8 km/h 88% 0 mm CLR
06:53 -26.4 °C -27.3 °C 34841.9 hPa NNE 5.5 km/h 5.5 km/h 88% 0 mm CLR
06:58 -26.5 °C -27.3 °C 34841.9 hPa NNE 6 km/h 6 km/h 88% 0 mm CLR
07:03 -26.5 °C -27.4 °C 34841.9 hPa NNE 6 km/h 6 km/h 88% 0 mm OVC
07:08 -26.6 °C -27.4 °C 34841.9 hPa NNE 6 km/h 6 km/h 88% 0 mm CLR
07:13 -26.6 °C -27.4 °C 34841.9 hPa NE 9 km/h 9 km/h 88% 0 mm FEW
07:18 -26.6 °C -27.4 °C 34841.9 hPa NE 6 km/h 6 km/h 88% 0 mm SCT
07:23 -26.6 °C -27.4 °C 34852.1 hPa NE 6 km/h 6 km/h 88% 0 mm BKN
07:28 -26.6 °C -27.3 °C 34852.1 hPa NE 9 km/h 9 km/h 89% 0 mm SCT
07:33 -26.6 °C -27.3 °C 34852.1 hPa Calm     89% 0 mm BKN
07:38 -26.6 °C -27.3 °C 34852.1 hPa NE 6 km/h 6 km/h 89% 0 mm BKN
07:43 -26.5 °C -27.3 °C 34852.1 hPa ENE 6 km/h 6 km/h 89% 0 mm SCT
07:48 -26.4 °C -27.2 °C 34852.1 hPa Calm     89% 0 mm BKN
07:53 -26.4 °C -27.2 °C 34852.1 hPa North 9 km/h 9 km/h 89% 0 mm SCT
07:58 -26.3 °C -27.1 °C 34852.1 hPa Calm     89% 0 mm SCT
08:03 -26.3 °C -27.1 °C 34852.1 hPa NE 3.1 km/h 3.1 km/h 89% 0 mm BKN
08:08 -26.2 °C -27 °C 34852.1 hPa NNE 9 km/h 9 km/h 89% 0 mm SCT
08:13 -26.1 °C -26.8 °C 34852.1 hPa NNE 6 km/h 6 km/h 89% 0 mm FEW
08:18 -25.9 °C -26.7 °C 34865.6 hPa North 9 km/h 9 km/h 89% 0 mm FEW
08:23 -25.7 °C -26.5 °C 34865.6 hPa NNE 11.9 km/h 11.9 km/h 89% 0 mm FEW
08:28 -25.6 °C -26.4 °C 34865.6 hPa NNE 9 km/h 9 km/h 89% 0 mm SCT
08:33 -25.4 °C -26.2 °C 34865.6 hPa NNE 9 km/h 9 km/h 89% 0 mm FEW
08:38 -25.3 °C -26.2 °C 34865.6 hPa NNE 15 km/h 15 km/h 88% 0 mm FEW
08:43 -25.2 °C -26.1 °C 34852.1 hPa NNW 11.9 km/h 11.9 km/h 88% 0 mm CLR
08:48 -25.2 °C -26.1 °C 34865.6 hPa NNE 15 km/h 15 km/h 87% 0 mm FEW
Wetterstation-Johanngeorgenstadt
bereitgestellt durch Wetterstation-Johanngeorgenstadt und Weather Underground - 2 mb
Besucherstatistik
Besucher gesamt: 958.556
Besucher heute: 262
Besucher gestern: 836
gerade online: 16
Seitenaufrufe diese Seite: 3.216
counter Statistiken